Terminal Aerodrome Forecast
Issued by NWS Sterling, VA

Home | Current Version | Previous Version | Text Only | Print | Product List | Glossary On
Versions: 1 2 3 4 5 6 7 8 9 10 11 12 13 14 15 16 17 18 19 20 21 22 23 24 25 26 27 28 29
000
FTUS41 KLWX 051128
TAFDCA
TAF
KDCA 051128Z 0512/0612 33005KT P6SM FEW060 BKN200
     FM051500 29008G16KT P6SM SCT050
     FM060000 32006KT P6SM FEW200
     FM061100 01006KT P6SM BKN100=

USA.gov is the U.S. government's official web portal to all federal, state and local government web resources and services.